< < Back
Terminal Aerodrome Forecast


Current Version              Previous Versions:   1  2  3  4  5  6  7  8  9  

Terminal Aerodrome Forecast

777
FTAK31 PAJN 260500
TAFAHN
TAF
PAHN 260532Z 2606/2706 VRB05KT P6SM SCT150
     FM262000 13008KT P6SM SCT100
     FM270100 11008KT P6SM BKN070
      AMD LTD TO CLD VIS AND WIND=



Latest METAR

623
SAUS70 KWBC 261200
MTRAHN
METAR KAHN 261151Z VRB03KT 10SM FEW010 OVC016 22/19 A3026 RMK AO2 SLP240
70001 T02170194 10222 20206 51010


USA.gov is the U.S. government's official web portal to all federal, state and local government web resources and services.